sensor_id;sensor_type;location;lat;lon;timestamp;P1;durP1;ratioP1;P2;durP2;ratioP2
7051;SDS011;3567;52.444;13.556;2022-12-07T00:01:22;31.58;;;13.60;;
7051;SDS011;3567;52.444;13.556;2022-12-07T00:03:50;27.60;;;12.73;;
7051;SDS011;3567;52.444;13.556;2022-12-07T00:06:18;27.20;;;13.10;;
7051;SDS011;3567;52.444;13.556;2022-12-07T00:08:44;24.02;;;12.23;;
7051;SDS011;3567;52.444;13.556;2022-12-07T00:11:11;28.10;;;13.00;;
7051;SDS011;3567;52.444;13.556;2022-12-07T00:13:41;28.23;;;12.68;;
7051;SDS011;3567;52.444;13.556;2022-12-07T00:16:14;27.02;;;12.93;;
7051;SDS011;3567;52.444;13.556;2022-12-07T00:18:41;29.35;;;12.80;;
7051;SDS011;3567;52.444;13.556;2022-12-07T00:21:26;23.70;;;13.90;;
7051;SDS011;3567;52.444;13.556;2022-12-07T00:23:54;24.40;;;13.13;;
7051;SDS011;3567;52.444;13.556;2022-12-07T00:26:28;28.13;;;13.57;;
7051;SDS011;3567;52.444;13.556;2022-12-07T00:28:55;26.88;;;13.68;;
7051;SDS011;3567;52.444;13.556;2022-12-07T00:31:24;25.08;;;13.85;;
7051;SDS011;3567;52.444;13.556;2022-12-07T00:33:54;24.60;;;13.38;;
7051;SDS011;3567;52.444;13.556;2022-12-07T00:36:20;20.40;;;12.82;;
7051;SDS011;3567;52.444;13.556;2022-12-07T00:38:49;19.60;;;12.57;;
7051;SDS011;3567;52.444;13.556;2022-12-07T00:41:15;20.75;;;12.63;;
7051;SDS011;3567;52.444;13.556;2022-12-07T00:43:42;20.27;;;12.65;;
7051;SDS011;3567;52.444;13.556;2022-12-07T00:46:09;19.10;;;12.50;;
7051;SDS011;3567;52.444;13.556;2022-12-07T00:48:35;17.23;;;11.63;;
7051;SDS011;3567;52.444;13.556;2022-12-07T00:51:00;16.58;;;11.63;;
7051;SDS011;3567;52.444;13.556;2022-12-07T00:53:26;17.23;;;11.27;;
7051;SDS011;3567;52.444;13.556;2022-12-07T00:55:53;15.60;;;10.75;;
7051;SDS011;3567;52.444;13.556;2022-12-07T00:58:18;18.08;;;10.95;;
7051;SDS011;3567;52.444;13.556;2022-12-07T01:00:44;14.10;;;10.27;;
7051;SDS011;3567;52.444;13.556;2022-12-07T01:03:11;14.60;;;10.07;;
7051;SDS011;3567;52.444;13.556;2022-12-07T01:05:38;13.95;;;10.05;;
7051;SDS011;3567;52.444;13.556;2022-12-07T01:08:03;11.63;;;8.30;;
7051;SDS011;3567;52.444;13.556;2022-12-07T01:10:29;12.02;;;8.43;;
7051;SDS011;3567;52.444;13.556;2022-12-07T01:12:56;12.35;;;8.90;;
7051;SDS011;3567;52.444;13.556;2022-12-07T01:15:23;11.75;;;8.68;;
7051;SDS011;3567;52.444;13.556;2022-12-07T01:17:49;14.00;;;9.23;;
7051;SDS011;3567;52.444;13.556;2022-12-07T01:20:15;11.38;;;8.13;;
7051;SDS011;3567;52.444;13.556;2022-12-07T01:22:41;11.38;;;8.98;;
7051;SDS011;3567;52.444;13.556;2022-12-07T01:25:08;12.65;;;9.02;;
7051;SDS011;3567;52.444;13.556;2022-12-07T01:27:34;12.65;;;8.73;;
7051;SDS011;3567;52.444;13.556;2022-12-07T01:30:00;13.38;;;8.20;;
7051;SDS011;3567;52.444;13.556;2022-12-07T01:32:26;10.93;;;8.57;;
7051;SDS011;3567;52.444;13.556;2022-12-07T01:34:52;10.60;;;7.72;;
7051;SDS011;3567;52.444;13.556;2022-12-07T01:37:17;9.80;;;7.88;;
7051;SDS011;3567;52.444;13.556;2022-12-07T01:39:43;9.65;;;7.78;;
7051;SDS011;3567;52.444;13.556;2022-12-07T01:42:11;10.40;;;7.80;;
7051;SDS011;3567;52.444;13.556;2022-12-07T01:47:40;11.00;;;7.22;;
7051;SDS011;3567;52.444;13.556;2022-12-07T01:50:08;10.43;;;7.80;;
7051;SDS011;3567;52.444;13.556;2022-12-07T01:52:34;8.68;;;7.07;;
7051;SDS011;3567;52.444;13.556;2022-12-07T01:55:07;9.35;;;7.32;;
7051;SDS011;3567;52.444;13.556;2022-12-07T01:57:38;9.05;;;6.75;;
7051;SDS011;3567;52.444;13.556;2022-12-07T02:00:06;9.57;;;7.15;;
7051;SDS011;3567;52.444;13.556;2022-12-07T02:02:33;7.85;;;6.47;;
7051;SDS011;3567;52.444;13.556;2022-12-07T02:05:11;8.27;;;7.20;;
7051;SDS011;3567;52.444;13.556;2022-12-07T02:07:36;10.50;;;7.10;;
7051;SDS011;3567;52.444;13.556;2022-12-07T02:10:16;8.77;;;7.03;;
7051;SDS011;3567;52.444;13.556;2022-12-07T02:12:47;9.23;;;6.63;;
7051;SDS011;3567;52.444;13.556;2022-12-07T02:15:15;9.48;;;6.93;;
7051;SDS011;3567;52.444;13.556;2022-12-07T02:17:52;8.60;;;6.80;;
7051;SDS011;3567;52.444;13.556;2022-12-07T02:23:49;7.70;;;6.20;;
7051;SDS011;3567;52.444;13.556;2022-12-07T02:26:12;9.48;;;6.35;;
7051;SDS011;3567;52.444;13.556;2022-12-07T02:32:05;9.52;;;7.50;;
7051;SDS011;3567;52.444;13.556;2022-12-07T02:38:01;9.05;;;7.63;;
7051;SDS011;3567;52.444;13.556;2022-12-07T02:40:08;9.07;;;7.43;;
7051;SDS011;3567;52.444;13.556;2022-12-07T02:42:43;10.70;;;7.95;;
7051;SDS011;3567;52.444;13.556;2022-12-07T02:45:13;10.07;;;7.28;;
7051;SDS011;3567;52.444;13.556;2022-12-07T02:47:42;8.77;;;7.13;;
7051;SDS011;3567;52.444;13.556;2022-12-07T02:50:09;8.10;;;6.70;;
7051;SDS011;3567;52.444;13.556;2022-12-07T02:52:35;9.05;;;6.95;;
7051;SDS011;3567;52.444;13.556;2022-12-07T02:55:01;9.18;;;6.90;;
7051;SDS011;3567;52.444;13.556;2022-12-07T02:57:35;11.85;;;7.63;;
7051;SDS011;3567;52.444;13.556;2022-12-07T03:07:56;9.32;;;6.78;;
7051;SDS011;3567;52.444;13.556;2022-12-07T03:13:12;9.35;;;7.22;;
7051;SDS011;3567;52.444;13.556;2022-12-07T03:15:40;9.75;;;6.85;;
7051;SDS011;3567;52.444;13.556;2022-12-07T03:18:16;8.55;;;6.68;;
7051;SDS011;3567;52.444;13.556;2022-12-07T03:20:45;14.48;;;7.10;;
7051;SDS011;3567;52.444;13.556;2022-12-07T03:23:13;10.77;;;6.65;;
7051;SDS011;3567;52.444;13.556;2022-12-07T03:25:44;11.20;;;7.65;;
7051;SDS011;3567;52.444;13.556;2022-12-07T03:28:14;10.75;;;7.53;;
7051;SDS011;3567;52.444;13.556;2022-12-07T03:30:44;11.05;;;7.65;;
7051;SDS011;3567;52.444;13.556;2022-12-07T03:33:17;8.73;;;7.07;;
7051;SDS011;3567;52.444;13.556;2022-12-07T03:36:21;11.05;;;7.13;;
7051;SDS011;3567;52.444;13.556;2022-12-07T03:38:51;9.65;;;7.35;;
7051;SDS011;3567;52.444;13.556;2022-12-07T03:41:25;12.15;;;7.63;;
7051;SDS011;3567;52.444;13.556;2022-12-07T03:43:53;8.70;;;6.63;;
7051;SDS011;3567;52.444;13.556;2022-12-07T03:46:25;9.55;;;6.72;;
7051;SDS011;3567;52.444;13.556;2022-12-07T03:51:36;11.35;;;7.53;;
7051;SDS011;3567;52.444;13.556;2022-12-07T03:56:44;10.60;;;7.50;;
7051;SDS011;3567;52.444;13.556;2022-12-07T03:59:11;9.50;;;7.43;;
7051;SDS011;3567;52.444;13.556;2022-12-07T04:01:40;9.40;;;7.22;;
7051;SDS011;3567;52.444;13.556;2022-12-07T04:04:07;11.57;;;7.93;;
7051;SDS011;3567;52.444;13.556;2022-12-07T04:06:32;11.23;;;7.88;;
7051;SDS011;3567;52.444;13.556;2022-12-07T04:08:58;11.55;;;7.35;;
7051;SDS011;3567;52.444;13.556;2022-12-07T04:11:23;11.55;;;8.05;;
7051;SDS011;3567;52.444;13.556;2022-12-07T04:13:48;14.00;;;8.73;;
7051;SDS011;3567;52.444;13.556;2022-12-07T04:16:32;11.52;;;8.13;;
7051;SDS011;3567;52.444;13.556;2022-12-07T04:18:58;10.65;;;8.20;;
7051;SDS011;3567;52.444;13.556;2022-12-07T04:21:23;12.30;;;8.10;;
7051;SDS011;3567;52.444;13.556;2022-12-07T04:23:48;14.23;;;9.00;;
7051;SDS011;3567;52.444;13.556;2022-12-07T04:26:14;12.88;;;8.93;;
7051;SDS011;3567;52.444;13.556;2022-12-07T04:28:39;15.02;;;10.15;;
7051;SDS011;3567;52.444;13.556;2022-12-07T04:31:04;17.73;;;10.85;;
7051;SDS011;3567;52.444;13.556;2022-12-07T04:33:30;18.70;;;11.13;;
7051;SDS011;3567;52.444;13.556;2022-12-07T04:35:55;17.98;;;10.48;;
7051;SDS011;3567;52.444;13.556;2022-12-07T04:38:20;19.98;;;11.32;;
7051;SDS011;3567;52.444;13.556;2022-12-07T04:40:46;27.80;;;15.85;;
7051;SDS011;3567;52.444;13.556;2022-12-07T04:43:11;19.65;;;12.93;;
7051;SDS011;3567;52.444;13.556;2022-12-07T04:45:36;40.38;;;30.25;;
7051;SDS011;3567;52.444;13.556;2022-12-07T04:48:02;26.80;;;16.42;;
7051;SDS011;3567;52.444;13.556;2022-12-07T04:50:27;24.45;;;14.68;;
7051;SDS011;3567;52.444;13.556;2022-12-07T04:52:52;23.88;;;14.27;;
7051;SDS011;3567;52.444;13.556;2022-12-07T04:55:18;26.40;;;15.23;;
7051;SDS011;3567;52.444;13.556;2022-12-07T04:57:43;25.77;;;14.70;;
7051;SDS011;3567;52.444;13.556;2022-12-07T05:00:09;29.88;;;18.50;;
7051;SDS011;3567;52.444;13.556;2022-12-07T05:02:34;29.80;;;17.85;;
7051;SDS011;3567;52.444;13.556;2022-12-07T05:05:00;31.38;;;16.50;;
7051;SDS011;3567;52.444;13.556;2022-12-07T05:07:25;30.58;;;17.83;;
7051;SDS011;3567;52.444;13.556;2022-12-07T05:09:50;31.60;;;15.68;;
7051;SDS011;3567;52.444;13.556;2022-12-07T05:12:16;30.45;;;16.67;;
7051;SDS011;3567;52.444;13.556;2022-12-07T05:14:41;35.75;;;18.10;;
7051;SDS011;3567;52.444;13.556;2022-12-07T05:17:06;32.33;;;17.95;;
7051;SDS011;3567;52.444;13.556;2022-12-07T05:19:32;37.63;;;18.67;;
7051;SDS011;3567;52.444;13.556;2022-12-07T05:21:57;39.55;;;20.27;;
7051;SDS011;3567;52.444;13.556;2022-12-07T05:24:22;37.33;;;19.48;;
7051;SDS011;3567;52.444;13.556;2022-12-07T05:26:48;40.53;;;20.77;;
7051;SDS011;3567;52.444;13.556;2022-12-07T05:29:14;46.25;;;20.58;;
7051;SDS011;3567;52.444;13.556;2022-12-07T05:31:41;44.08;;;22.15;;
7051;SDS011;3567;52.444;13.556;2022-12-07T05:34:06;46.25;;;22.55;;
7051;SDS011;3567;52.444;13.556;2022-12-07T05:36:31;46.58;;;21.88;;
7051;SDS011;3567;52.444;13.556;2022-12-07T05:38:57;43.70;;;20.42;;
7051;SDS011;3567;52.444;13.556;2022-12-07T05:41:23;57.40;;;22.10;;
7051;SDS011;3567;52.444;13.556;2022-12-07T05:44:06;42.83;;;20.67;;
7051;SDS011;3567;52.444;13.556;2022-12-07T05:46:32;43.47;;;19.58;;
7051;SDS011;3567;52.444;13.556;2022-12-07T05:48:58;40.70;;;19.75;;
7051;SDS011;3567;52.444;13.556;2022-12-07T05:51:23;44.45;;;21.60;;
7051;SDS011;3567;52.444;13.556;2022-12-07T05:53:49;39.85;;;20.70;;
7051;SDS011;3567;52.444;13.556;2022-12-07T05:56:14;43.08;;;20.77;;
7051;SDS011;3567;52.444;13.556;2022-12-07T05:58:40;38.47;;;21.98;;
7051;SDS011;3567;52.444;13.556;2022-12-07T06:01:24;44.17;;;21.67;;
7051;SDS011;3567;52.444;13.556;2022-12-07T06:03:49;46.33;;;22.02;;
7051;SDS011;3567;52.444;13.556;2022-12-07T06:06:15;45.85;;;20.48;;
7051;SDS011;3567;52.444;13.556;2022-12-07T06:08:40;50.35;;;25.05;;
7051;SDS011;3567;52.444;13.556;2022-12-07T06:11:05;52.25;;;23.17;;
7051;SDS011;3567;52.444;13.556;2022-12-07T06:13:49;49.20;;;23.25;;
7051;SDS011;3567;52.444;13.556;2022-12-07T06:16:15;51.00;;;23.05;;
7051;SDS011;3567;52.444;13.556;2022-12-07T06:18:40;45.33;;;22.65;;
7051;SDS011;3567;52.444;13.556;2022-12-07T06:21:05;52.13;;;22.60;;
7051;SDS011;3567;52.444;13.556;2022-12-07T06:23:31;54.35;;;25.00;;
7051;SDS011;3567;52.444;13.556;2022-12-07T06:25:56;56.42;;;23.27;;
7051;SDS011;3567;52.444;13.556;2022-12-07T06:28:21;61.40;;;26.42;;
7051;SDS011;3567;52.444;13.556;2022-12-07T06:30:47;55.85;;;25.92;;
7051;SDS011;3567;52.444;13.556;2022-12-07T06:33:12;58.28;;;24.98;;
7051;SDS011;3567;52.444;13.556;2022-12-07T06:35:37;60.45;;;26.30;;
7051;SDS011;3567;52.444;13.556;2022-12-07T06:38:03;63.50;;;26.33;;
7051;SDS011;3567;52.444;13.556;2022-12-07T06:40:28;60.92;;;25.95;;
7051;SDS011;3567;52.444;13.556;2022-12-07T06:42:53;62.30;;;27.08;;
7051;SDS011;3567;52.444;13.556;2022-12-07T06:45:19;60.38;;;26.13;;
7051;SDS011;3567;52.444;13.556;2022-12-07T06:47:44;65.90;;;28.77;;
7051;SDS011;3567;52.444;13.556;2022-12-07T06:50:09;63.33;;;27.73;;
7051;SDS011;3567;52.444;13.556;2022-12-07T06:52:35;64.03;;;27.60;;
7051;SDS011;3567;52.444;13.556;2022-12-07T06:55:00;65.07;;;26.90;;
7051;SDS011;3567;52.444;13.556;2022-12-07T06:57:26;62.35;;;28.45;;
7051;SDS011;3567;52.444;13.556;2022-12-07T06:59:51;64.45;;;28.27;;
7051;SDS011;3567;52.444;13.556;2022-12-07T07:02:17;61.38;;;27.17;;
7051;SDS011;3567;52.444;13.556;2022-12-07T07:04:42;55.28;;;25.10;;
7051;SDS011;3567;52.444;13.556;2022-12-07T07:07:08;62.63;;;27.67;;
7051;SDS011;3567;52.444;13.556;2022-12-07T07:09:33;68.20;;;27.58;;
7051;SDS011;3567;52.444;13.556;2022-12-07T07:11:59;57.28;;;26.35;;
7051;SDS011;3567;52.444;13.556;2022-12-07T07:14:24;62.13;;;26.95;;
7051;SDS011;3567;52.444;13.556;2022-12-07T07:16:49;65.80;;;29.08;;
7051;SDS011;3567;52.444;13.556;2022-12-07T07:19:15;57.42;;;25.85;;
7051;SDS011;3567;52.444;13.556;2022-12-07T07:21:40;58.40;;;26.20;;
7051;SDS011;3567;52.444;13.556;2022-12-07T07:24:05;66.38;;;28.00;;
7051;SDS011;3567;52.444;13.556;2022-12-07T07:26:31;58.47;;;25.77;;
7051;SDS011;3567;52.444;13.556;2022-12-07T07:28:56;60.92;;;26.42;;
7051;SDS011;3567;52.444;13.556;2022-12-07T07:31:22;67.13;;;29.00;;
7051;SDS011;3567;52.444;13.556;2022-12-07T07:33:47;56.67;;;26.55;;
7051;SDS011;3567;52.444;13.556;2022-12-07T07:36:12;51.60;;;25.50;;
7051;SDS011;3567;52.444;13.556;2022-12-07T07:38:38;51.72;;;26.00;;
7051;SDS011;3567;52.444;13.556;2022-12-07T07:41:04;58.72;;;26.52;;
7051;SDS011;3567;52.444;13.556;2022-12-07T07:43:29;60.92;;;25.77;;
7051;SDS011;3567;52.444;13.556;2022-12-07T07:45:55;51.88;;;25.00;;
7051;SDS011;3567;52.444;13.556;2022-12-07T07:48:20;50.47;;;24.95;;
7051;SDS011;3567;52.444;13.556;2022-12-07T07:50:47;49.25;;;22.65;;
7051;SDS011;3567;52.444;13.556;2022-12-07T07:53:13;47.20;;;22.90;;
7051;SDS011;3567;52.444;13.556;2022-12-07T07:55:38;47.95;;;22.58;;
7051;SDS011;3567;52.444;13.556;2022-12-07T07:58:03;51.10;;;23.23;;
7051;SDS011;3567;52.444;13.556;2022-12-07T08:00:29;41.58;;;20.33;;
7051;SDS011;3567;52.444;13.556;2022-12-07T08:02:54;37.53;;;19.10;;
7051;SDS011;3567;52.444;13.556;2022-12-07T08:05:19;41.50;;;20.02;;
7051;SDS011;3567;52.444;13.556;2022-12-07T08:07:45;40.95;;;19.42;;
7051;SDS011;3567;52.444;13.556;2022-12-07T08:10:11;35.35;;;18.92;;
7051;SDS011;3567;52.444;13.556;2022-12-07T08:12:38;35.88;;;19.20;;
7051;SDS011;3567;52.444;13.556;2022-12-07T08:15:25;35.58;;;18.98;;
7051;SDS011;3567;52.444;13.556;2022-12-07T08:17:52;26.63;;;16.02;;
7051;SDS011;3567;52.444;13.556;2022-12-07T08:20:17;28.13;;;15.70;;
7051;SDS011;3567;52.444;13.556;2022-12-07T08:22:42;32.72;;;15.93;;
7051;SDS011;3567;52.444;13.556;2022-12-07T08:25:08;24.63;;;15.02;;
7051;SDS011;3567;52.444;13.556;2022-12-07T08:27:33;23.40;;;14.13;;
7051;SDS011;3567;52.444;13.556;2022-12-07T08:29:58;25.08;;;14.85;;
7051;SDS011;3567;52.444;13.556;2022-12-07T08:32:24;30.92;;;13.10;;
7051;SDS011;3567;52.444;13.556;2022-12-07T08:34:49;23.02;;;13.20;;
7051;SDS011;3567;52.444;13.556;2022-12-07T08:37:14;20.85;;;12.07;;
7051;SDS011;3567;52.444;13.556;2022-12-07T08:39:40;19.08;;;11.63;;
7051;SDS011;3567;52.444;13.556;2022-12-07T08:42:05;14.43;;;10.20;;
7051;SDS011;3567;52.444;13.556;2022-12-07T08:44:31;16.95;;;10.18;;
7051;SDS011;3567;52.444;13.556;2022-12-07T08:46:57;16.30;;;9.50;;
7051;SDS011;3567;52.444;13.556;2022-12-07T08:49:27;13.75;;;8.57;;
7051;SDS011;3567;52.444;13.556;2022-12-07T08:51:56;16.20;;;7.38;;
7051;SDS011;3567;52.444;13.556;2022-12-07T08:54:22;13.38;;;8.52;;
7051;SDS011;3567;52.444;13.556;2022-12-07T08:56:47;9.88;;;6.75;;
7051;SDS011;3567;52.444;13.556;2022-12-07T08:59:16;8.20;;;5.78;;
7051;SDS011;3567;52.444;13.556;2022-12-07T09:01:42;5.95;;;3.83;;
7051;SDS011;3567;52.444;13.556;2022-12-07T09:04:08;3.40;;;3.13;;
7051;SDS011;3567;52.444;13.556;2022-12-07T09:06:33;2.60;;;2.08;;
7051;SDS011;3567;52.444;13.556;2022-12-07T09:08:59;2.55;;;2.35;;
7051;SDS011;3567;52.444;13.556;2022-12-07T09:11:26;2.67;;;1.67;;
7051;SDS011;3567;52.444;13.556;2022-12-07T09:13:52;3.28;;;1.60;;
7051;SDS011;3567;52.444;13.556;2022-12-07T09:16:17;5.28;;;2.08;;
7051;SDS011;3567;52.444;13.556;2022-12-07T09:18:43;4.07;;;2.33;;
7051;SDS011;3567;52.444;13.556;2022-12-07T09:21:08;1.90;;;1.80;;
7051;SDS011;3567;52.444;13.556;2022-12-07T09:23:34;4.85;;;2.10;;
7051;SDS011;3567;52.444;13.556;2022-12-07T09:26:02;1.98;;;1.73;;
7051;SDS011;3567;52.444;13.556;2022-12-07T09:28:29;4.47;;;1.90;;
7051;SDS011;3567;52.444;13.556;2022-12-07T09:30:55;1.35;;;1.25;;
7051;SDS011;3567;52.444;13.556;2022-12-07T09:33:20;1.00;;;0.90;;
7051;SDS011;3567;52.444;13.556;2022-12-07T09:35:47;1.58;;;1.10;;
7051;SDS011;3567;52.444;13.556;2022-12-07T09:38:13;2.00;;;1.15;;
7051;SDS011;3567;52.444;13.556;2022-12-07T09:40:39;1.08;;;1.08;;
7051;SDS011;3567;52.444;13.556;2022-12-07T09:43:08;2.20;;;1.30;;
7051;SDS011;3567;52.444;13.556;2022-12-07T09:45:48;4.07;;;2.55;;
7051;SDS011;3567;52.444;13.556;2022-12-07T09:48:41;3.40;;;1.70;;
7051;SDS011;3567;52.444;13.556;2022-12-07T09:51:16;2.25;;;1.98;;
7051;SDS011;3567;52.444;13.556;2022-12-07T09:53:46;2.42;;;2.22;;
7051;SDS011;3567;52.444;13.556;2022-12-07T09:56:13;3.08;;;2.42;;
7051;SDS011;3567;52.444;13.556;2022-12-07T09:58:41;2.25;;;2.15;;
7051;SDS011;3567;52.444;13.556;2022-12-07T10:03:33;1.35;;;1.25;;
7051;SDS011;3567;52.444;13.556;2022-12-07T10:06:00;2.15;;;1.95;;
7051;SDS011;3567;52.444;13.556;2022-12-07T10:08:26;1.67;;;1.58;;
7051;SDS011;3567;52.444;13.556;2022-12-07T10:10:52;1.67;;;1.40;;
7051;SDS011;3567;52.444;13.556;2022-12-07T10:13:37;3.00;;;1.67;;
7051;SDS011;3567;52.444;13.556;2022-12-07T10:16:25;0.90;;;0.90;;
7051;SDS011;3567;52.444;13.556;2022-12-07T10:18:57;3.28;;;1.50;;
7051;SDS011;3567;52.444;13.556;2022-12-07T10:21:58;2.80;;;1.40;;
7051;SDS011;3567;52.444;13.556;2022-12-07T10:24:34;4.32;;;1.77;;
7051;SDS011;3567;52.444;13.556;2022-12-07T10:27:02;2.42;;;1.40;;
7051;SDS011;3567;52.444;13.556;2022-12-07T10:32:04;1.60;;;1.27;;
7051;SDS011;3567;52.444;13.556;2022-12-07T10:34:33;2.15;;;1.52;;
7051;SDS011;3567;52.444;13.556;2022-12-07T10:39:44;2.45;;;1.65;;
7051;SDS011;3567;52.444;13.556;2022-12-07T10:42:20;5.00;;;2.97;;
7051;SDS011;3567;52.444;13.556;2022-12-07T10:45:06;3.58;;;2.22;;
7051;SDS011;3567;52.444;13.556;2022-12-07T10:53:10;3.05;;;1.80;;
7051;SDS011;3567;52.444;13.556;2022-12-07T10:58:52;1.80;;;1.33;;
7051;SDS011;3567;52.444;13.556;2022-12-07T11:18:34;2.38;;;1.98;;
7051;SDS011;3567;52.444;13.556;2022-12-07T11:26:18;4.20;;;2.42;;
7051;SDS011;3567;52.444;13.556;2022-12-07T11:29:30;4.35;;;2.40;;
7051;SDS011;3567;52.444;13.556;2022-12-07T11:34:56;3.17;;;2.40;;
7051;SDS011;3567;52.444;13.556;2022-12-07T11:37:41;2.80;;;2.10;;
7051;SDS011;3567;52.444;13.556;2022-12-07T11:40:15;2.58;;;2.40;;
7051;SDS011;3567;52.444;13.556;2022-12-07T11:42:46;3.70;;;2.80;;
7051;SDS011;3567;52.444;13.556;2022-12-07T11:45:19;2.88;;;2.15;;
7051;SDS011;3567;52.444;13.556;2022-12-07T11:47:57;3.05;;;2.50;;
7051;SDS011;3567;52.444;13.556;2022-12-07T11:58:34;2.33;;;2.08;;
7051;SDS011;3567;52.444;13.556;2022-12-07T12:06:36;2.95;;;2.35;;
7051;SDS011;3567;52.444;13.556;2022-12-07T12:09:13;2.08;;;1.88;;
7051;SDS011;3567;52.444;13.556;2022-12-07T12:11:44;2.95;;;1.85;;
7051;SDS011;3567;52.444;13.556;2022-12-07T12:14:46;2.05;;;1.73;;
7051;SDS011;3567;52.444;13.556;2022-12-07T12:25:54;4.97;;;2.50;;
7051;SDS011;3567;52.444;13.556;2022-12-07T12:29:18;3.95;;;1.60;;
7051;SDS011;3567;52.444;13.556;2022-12-07T12:33:53;4.30;;;1.70;;
7051;SDS011;3567;52.444;13.556;2022-12-07T12:44:00;2.42;;;1.15;;
7051;SDS011;3567;52.444;13.556;2022-12-07T12:51:41;4.70;;;1.40;;
7051;SDS011;3567;52.444;13.556;2022-12-07T12:54:12;2.55;;;1.50;;
7051;SDS011;3567;52.444;13.556;2022-12-07T12:57:05;7.35;;;2.08;;
7051;SDS011;3567;52.444;13.556;2022-12-07T13:05:24;2.53;;;1.60;;
7051;SDS011;3567;52.444;13.556;2022-12-07T13:17:59;4.25;;;1.40;;
7051;SDS011;3567;52.444;13.556;2022-12-07T13:23:13;3.15;;;1.55;;
7051;SDS011;3567;52.444;13.556;2022-12-07T13:25:49;7.00;;;2.15;;
7051;SDS011;3567;52.444;13.556;2022-12-07T13:28:19;2.50;;;1.42;;
7051;SDS011;3567;52.444;13.556;2022-12-07T13:34:31;3.17;;;1.67;;
7051;SDS011;3567;52.444;13.556;2022-12-07T13:39:47;4.93;;;1.52;;
7051;SDS011;3567;52.444;13.556;2022-12-07T13:42:19;2.92;;;1.25;;
7051;SDS011;3567;52.444;13.556;2022-12-07T13:44:51;4.38;;;1.27;;
7051;SDS011;3567;52.444;13.556;2022-12-07T13:47:28;7.97;;;1.73;;
7051;SDS011;3567;52.444;13.556;2022-12-07T13:49:56;4.78;;;1.13;;
7051;SDS011;3567;52.444;13.556;2022-12-07T13:52:25;6.03;;;1.88;;
7051;SDS011;3567;52.444;13.556;2022-12-07T13:57:20;6.05;;;1.40;;
7051;SDS011;3567;52.444;13.556;2022-12-07T13:59:47;6.88;;;1.17;;
7051;SDS011;3567;52.444;13.556;2022-12-07T14:02:19;2.05;;;1.00;;
7051;SDS011;3567;52.444;13.556;2022-12-07T14:04:47;1.92;;;1.13;;
7051;SDS011;3567;52.444;13.556;2022-12-07T14:09:53;4.10;;;1.10;;
7051;SDS011;3567;52.444;13.556;2022-12-07T14:12:29;5.55;;;1.08;;
7051;SDS011;3567;52.444;13.556;2022-12-07T14:14:56;4.43;;;1.20;;
7051;SDS011;3567;52.444;13.556;2022-12-07T14:17:23;5.50;;;1.13;;
7051;SDS011;3567;52.444;13.556;2022-12-07T14:19:54;6.15;;;1.30;;
7051;SDS011;3567;52.444;13.556;2022-12-07T14:24:48;3.53;;;1.60;;
7051;SDS011;3567;52.444;13.556;2022-12-07T14:27:20;3.80;;;1.23;;
7051;SDS011;3567;52.444;13.556;2022-12-07T14:29:47;5.15;;;1.42;;
7051;SDS011;3567;52.444;13.556;2022-12-07T14:32:29;3.17;;;1.42;;
7051;SDS011;3567;52.444;13.556;2022-12-07T14:37:27;3.78;;;1.50;;
7051;SDS011;3567;52.444;13.556;2022-12-07T14:39:53;5.78;;;1.40;;
7051;SDS011;3567;52.444;13.556;2022-12-07T14:42:19;7.45;;;1.77;;
7051;SDS011;3567;52.444;13.556;2022-12-07T14:44:45;9.40;;;1.35;;
7051;SDS011;3567;52.444;13.556;2022-12-07T14:47:10;3.10;;;1.30;;
7051;SDS011;3567;52.444;13.556;2022-12-07T14:49:36;8.07;;;1.80;;
7051;SDS011;3567;52.444;13.556;2022-12-07T14:52:02;5.47;;;2.40;;
7051;SDS011;3567;52.444;13.556;2022-12-07T14:54:29;7.22;;;1.80;;
7051;SDS011;3567;52.444;13.556;2022-12-07T14:56:56;5.32;;;1.88;;
7051;SDS011;3567;52.444;13.556;2022-12-07T14:59:22;5.20;;;1.95;;
7051;SDS011;3567;52.444;13.556;2022-12-07T15:01:47;4.50;;;1.70;;
7051;SDS011;3567;52.444;13.556;2022-12-07T15:04:12;5.85;;;2.10;;
7051;SDS011;3567;52.444;13.556;2022-12-07T15:06:38;6.22;;;1.55;;
7051;SDS011;3567;52.444;13.556;2022-12-07T15:09:03;6.05;;;1.40;;
7051;SDS011;3567;52.444;13.556;2022-12-07T15:11:29;6.93;;;2.22;;
7051;SDS011;3567;52.444;13.556;2022-12-07T15:13:54;4.90;;;1.98;;
7051;SDS011;3567;52.444;13.556;2022-12-07T15:16:37;4.18;;;1.45;;
7051;SDS011;3567;52.444;13.556;2022-12-07T15:19:19;4.32;;;1.60;;
7051;SDS011;3567;52.444;13.556;2022-12-07T15:21:51;4.28;;;1.42;;
7051;SDS011;3567;52.444;13.556;2022-12-07T15:24:17;6.40;;;1.58;;
7051;SDS011;3567;52.444;13.556;2022-12-07T15:26:42;11.73;;;1.80;;
7051;SDS011;3567;52.444;13.556;2022-12-07T15:29:08;7.68;;;1.63;;
7051;SDS011;3567;52.444;13.556;2022-12-07T15:31:34;4.82;;;1.50;;
7051;SDS011;3567;52.444;13.556;2022-12-07T15:34:00;5.32;;;2.28;;
7051;SDS011;3567;52.444;13.556;2022-12-07T15:36:27;8.82;;;2.10;;
7051;SDS011;3567;52.444;13.556;2022-12-07T15:38:54;6.43;;;1.70;;
7051;SDS011;3567;52.444;13.556;2022-12-07T15:41:19;7.22;;;2.30;;
7051;SDS011;3567;52.444;13.556;2022-12-07T15:43:46;6.07;;;1.55;;
7051;SDS011;3567;52.444;13.556;2022-12-07T15:46:30;6.00;;;1.67;;
7051;SDS011;3567;52.444;13.556;2022-12-07T15:49:00;6.93;;;1.77;;
7051;SDS011;3567;52.444;13.556;2022-12-07T15:51:25;6.35;;;1.73;;
7051;SDS011;3567;52.444;13.556;2022-12-07T15:53:51;10.38;;;1.92;;
7051;SDS011;3567;52.444;13.556;2022-12-07T15:56:17;7.28;;;2.03;;
7051;SDS011;3567;52.444;13.556;2022-12-07T15:58:42;5.15;;;1.92;;
7051;SDS011;3567;52.444;13.556;2022-12-07T16:01:14;6.82;;;2.00;;
7051;SDS011;3567;52.444;13.556;2022-12-07T16:03:41;8.70;;;2.22;;
7051;SDS011;3567;52.444;13.556;2022-12-07T16:06:06;11.43;;;2.25;;
7051;SDS011;3567;52.444;13.556;2022-12-07T16:08:32;7.45;;;2.03;;
7051;SDS011;3567;52.444;13.556;2022-12-07T16:10:58;9.18;;;1.90;;
7051;SDS011;3567;52.444;13.556;2022-12-07T16:13:23;6.88;;;2.20;;
7051;SDS011;3567;52.444;13.556;2022-12-07T16:15:48;10.38;;;2.03;;
7051;SDS011;3567;52.444;13.556;2022-12-07T16:18:14;4.28;;;1.60;;
7051;SDS011;3567;52.444;13.556;2022-12-07T16:20:39;8.70;;;2.13;;
7051;SDS011;3567;52.444;13.556;2022-12-07T16:23:05;9.57;;;2.30;;
7051;SDS011;3567;52.444;13.556;2022-12-07T16:25:32;6.55;;;1.95;;
7051;SDS011;3567;52.444;13.556;2022-12-07T16:27:57;4.63;;;2.10;;
7051;SDS011;3567;52.444;13.556;2022-12-07T16:30:22;5.85;;;1.80;;
7051;SDS011;3567;52.444;13.556;2022-12-07T16:32:48;5.45;;;1.70;;
7051;SDS011;3567;52.444;13.556;2022-12-07T16:35:13;10.48;;;2.22;;
7051;SDS011;3567;52.444;13.556;2022-12-07T16:37:41;10.07;;;2.90;;
7051;SDS011;3567;52.444;13.556;2022-12-07T16:40:07;8.38;;;3.22;;
7051;SDS011;3567;52.444;13.556;2022-12-07T16:42:34;4.70;;;2.05;;
7051;SDS011;3567;52.444;13.556;2022-12-07T16:45:00;9.25;;;2.08;;
7051;SDS011;3567;52.444;13.556;2022-12-07T16:47:25;8.40;;;1.77;;
7051;SDS011;3567;52.444;13.556;2022-12-07T16:49:51;12.57;;;1.83;;
7051;SDS011;3567;52.444;13.556;2022-12-07T16:52:17;10.98;;;2.05;;
7051;SDS011;3567;52.444;13.556;2022-12-07T16:54:46;5.10;;;2.10;;
7051;SDS011;3567;52.444;13.556;2022-12-07T16:57:12;7.03;;;1.65;;
7051;SDS011;3567;52.444;13.556;2022-12-07T16:59:37;3.05;;;1.40;;
7051;SDS011;3567;52.444;13.556;2022-12-07T17:02:02;6.07;;;2.35;;
7051;SDS011;3567;52.444;13.556;2022-12-07T17:04:28;5.80;;;1.83;;
7051;SDS011;3567;52.444;13.556;2022-12-07T17:06:54;5.65;;;2.05;;
7051;SDS011;3567;52.444;13.556;2022-12-07T17:09:19;6.30;;;1.25;;
7051;SDS011;3567;52.444;13.556;2022-12-07T17:11:44;9.55;;;1.52;;
7051;SDS011;3567;52.444;13.556;2022-12-07T17:14:10;6.45;;;2.15;;
7051;SDS011;3567;52.444;13.556;2022-12-07T17:16:54;6.70;;;2.10;;
7051;SDS011;3567;52.444;13.556;2022-12-07T17:19:20;9.27;;;1.83;;
7051;SDS011;3567;52.444;13.556;2022-12-07T17:21:45;9.10;;;2.70;;